Terminal Aerodrome Forecast
Issued by NWS

Home | Current Version | Previous Version | Text Only | Print | Product List | Glossary On
Versions: 1 2 3 4 5 6 7 8 9 10 11 12 13 14 15
000
FTUS42 KMLB 171700
TAFISM
TAF
KISM 171733Z 1718/1818 28009KT P6SM VCSH SCT020 BKN080
     FM180000 31005KT P6SM BKN040 OVC080
     FM181400 02004KT P6SM FEW020 SCT150 SCT250=

USA.gov is the U.S. government's official web portal to all federal, state and local government web resources and services.